createdAt,value
2018-07-20T00:00:23.152Z,20.14
2018-07-20T00:01:23.111Z,20.18
2018-07-20T00:02:23.124Z,20.14
2018-07-20T00:03:23.107Z,20.13
2018-07-20T00:04:23.105Z,20.07
2018-07-20T00:05:23.102Z,20.04
2018-07-20T00:06:23.106Z,20.06
2018-07-20T00:07:23.106Z,20.06
2018-07-20T00:08:23.099Z,19.99
2018-07-20T00:09:23.097Z,19.92
2018-07-20T00:10:23.098Z,19.89
2018-07-20T00:11:23.091Z,19.88
2018-07-20T00:12:23.091Z,19.86
2018-07-20T00:13:23.089Z,19.92
2018-07-20T00:14:23.092Z,19.88
2018-07-20T00:15:23.092Z,19.84
2018-07-20T00:16:23.085Z,19.88
2018-07-20T00:17:23.080Z,19.84
2018-07-20T00:18:23.081Z,19.67
2018-07-20T00:19:23.077Z,19.66
2018-07-20T00:20:23.076Z,19.74
2018-07-20T00:21:23.082Z,19.77
2018-07-20T00:22:23.075Z,19.71
2018-07-20T00:23:23.070Z,19.67
2018-07-20T00:24:23.072Z,19.69
2018-07-20T00:25:23.065Z,19.66
2018-07-20T00:26:23.068Z,19.58
2018-07-20T00:27:23.065Z,19.56
2018-07-20T00:28:23.073Z,19.59
2018-07-20T00:29:23.064Z,19.56
2018-07-20T00:30:23.075Z,19.56
2018-07-20T00:31:23.057Z,19.51
2018-07-20T00:32:23.055Z,19.51
2018-07-20T00:33:23.051Z,19.51
2018-07-20T00:34:23.050Z,19.55
2018-07-20T00:35:23.051Z,19.52
2018-07-20T00:36:23.051Z,19.54
2018-07-20T00:37:23.046Z,19.55
2018-07-20T00:38:23.047Z,19.52
2018-07-20T00:39:23.044Z,19.51
2018-07-20T00:40:23.041Z,19.49
2018-07-20T00:41:23.044Z,19.52
2018-07-20T00:42:23.039Z,19.44
2018-07-20T00:43:23.063Z,19.52
2018-07-20T00:44:23.033Z,19.52
2018-07-20T00:45:23.028Z,19.48
2018-07-20T00:46:23.055Z,19.44
2018-07-20T00:47:23.026Z,19.40
2018-07-20T00:48:23.026Z,19.44
2018-07-20T00:49:23.021Z,19.41
2018-07-20T00:50:23.025Z,19.45
2018-07-20T00:51:23.020Z,19.30
2018-07-20T00:52:23.016Z,19.37
2018-07-20T00:53:23.017Z,19.39
2018-07-20T00:54:23.014Z,19.30
2018-07-20T00:55:23.008Z,19.31
2018-07-20T00:56:23.015Z,19.30
2018-07-20T00:57:23.005Z,19.31
2018-07-20T00:58:23.007Z,19.15
2018-07-20T00:59:23.005Z,19.24
2018-07-20T01:00:22.998Z,19.16
2018-07-20T01:01:22.997Z,19.19
2018-07-20T01:02:22.998Z,19.18
2018-07-20T01:03:23.005Z,19.09
2018-07-20T01:04:22.995Z,19.04
2018-07-20T01:05:23.017Z,19.00
2018-07-20T01:06:22.991Z,19.00
2018-07-20T01:07:22.987Z,18.98
2018-07-20T01:08:22.983Z,18.88
2018-07-20T01:09:22.981Z,18.98
2018-07-20T01:10:22.978Z,18.93
2018-07-20T01:11:22.983Z,18.92
2018-07-20T01:12:22.980Z,18.89
2018-07-20T01:13:22.977Z,18.86
2018-07-20T01:14:22.975Z,18.89
2018-07-20T01:15:22.968Z,18.80
2018-07-20T01:16:22.968Z,18.75
2018-07-20T01:17:22.968Z,18.84
2018-07-20T01:18:22.963Z,18.74
2018-07-20T01:19:22.970Z,18.75
2018-07-20T01:20:22.960Z,18.71
2018-07-20T01:21:22.962Z,18.70
2018-07-20T01:22:22.955Z,18.70
2018-07-20T01:23:22.951Z,18.66
2018-07-20T01:24:22.952Z,18.68
2018-07-20T01:25:22.953Z,18.58
2018-07-20T01:26:22.948Z,18.55
2018-07-20T01:27:22.943Z,18.59
2018-07-20T01:28:22.944Z,18.58
2018-07-20T01:29:22.936Z,18.53
2018-07-20T01:30:22.931Z,18.59
2018-07-20T01:31:22.932Z,18.53
2018-07-20T01:32:22.928Z,18.58
2018-07-20T01:33:22.930Z,18.50
2018-07-20T01:34:22.926Z,18.50
2018-07-20T01:35:22.924Z,18.44
2018-07-20T01:36:22.923Z,18.38
2018-07-20T01:37:22.917Z,18.43
2018-07-20T01:38:22.918Z,18.53
2018-07-20T01:39:22.917Z,18.41
2018-07-20T01:40:22.916Z,18.41
2018-07-20T01:41:22.911Z,18.35
2018-07-20T01:42:22.906Z,18.44
2018-07-20T01:43:22.909Z,18.41
2018-07-20T01:44:22.903Z,18.45
2018-07-20T01:45:22.905Z,18.45
2018-07-20T01:46:22.898Z,18.29
2018-07-20T01:47:22.896Z,18.33
2018-07-20T01:48:22.894Z,18.25
2018-07-20T01:49:22.889Z,18.26
2018-07-20T01:50:22.886Z,18.28
2018-07-20T01:51:22.891Z,18.26
2018-07-20T01:52:22.921Z,18.28
2018-07-20T01:53:22.884Z,18.26
2018-07-20T01:54:22.877Z,18.23
2018-07-20T01:55:22.898Z,18.19
2018-07-20T01:56:22.877Z,18.23
2018-07-20T01:57:22.870Z,18.15
2018-07-20T01:58:22.870Z,18.11
2018-07-20T01:59:22.865Z,18.22
2018-07-20T02:00:22.863Z,18.16
2018-07-20T02:01:22.877Z,18.13
2018-07-20T02:02:22.863Z,18.20
2018-07-20T02:03:22.855Z,18.08
2018-07-20T02:04:43.881Z,18.08
2018-07-20T02:05:22.853Z,18.16
2018-07-20T02:06:22.844Z,18.10
2018-07-20T02:07:22.841Z,18.10
2018-07-20T02:08:22.841Z,18.05
2018-07-20T02:09:22.847Z,18.10
2018-07-20T02:10:22.837Z,18.07
2018-07-20T02:11:22.833Z,18.07
2018-07-20T02:12:22.830Z,18.04
2018-07-20T02:13:22.828Z,18.00
2018-07-20T02:14:22.830Z,18.00
2018-07-20T02:15:22.824Z,17.98
2018-07-20T02:16:22.825Z,18.00
2018-07-20T02:17:23.423Z,18.03
2018-07-20T02:18:22.816Z,17.98
2018-07-20T02:19:22.812Z,18.00
2018-07-20T02:20:22.828Z,18.00
2018-07-20T02:21:22.843Z,18.03
2018-07-20T02:22:22.806Z,17.98
2018-07-20T02:23:22.836Z,17.98
2018-07-20T02:24:22.810Z,17.95
2018-07-20T02:25:22.808Z,17.94
2018-07-20T02:26:22.795Z,17.94
2018-07-20T02:27:22.790Z,17.95
2018-07-20T02:28:22.795Z,17.85
2018-07-20T02:29:22.815Z,17.89
2018-07-20T02:30:22.785Z,17.92
2018-07-20T02:31:22.786Z,17.85
2018-07-20T02:32:22.783Z,17.79
2018-07-20T02:33:22.780Z,17.82
2018-07-20T02:34:22.771Z,17.82
2018-07-20T02:35:22.770Z,17.79
2018-07-20T02:36:22.770Z,17.80
2018-07-20T02:37:22.765Z,17.82
2018-07-20T02:38:22.762Z,17.80
2018-07-20T02:39:22.758Z,17.78
2018-07-20T02:40:22.759Z,17.79
2018-07-20T02:41:22.754Z,17.83
2018-07-20T02:42:22.750Z,17.80
2018-07-20T02:43:22.759Z,17.76
2018-07-20T02:44:22.747Z,17.79
2018-07-20T02:45:22.744Z,17.65
2018-07-20T02:46:22.740Z,17.67
2018-07-20T02:47:22.737Z,17.71
2018-07-20T02:48:22.733Z,17.65
2018-07-20T02:49:22.731Z,17.80
2018-07-20T02:50:22.727Z,17.68
2018-07-20T02:51:22.727Z,17.68
2018-07-20T02:52:22.721Z,17.71
2018-07-20T02:53:22.719Z,17.71
2018-07-20T02:54:22.716Z,17.79
2018-07-20T02:55:22.717Z,17.78
2018-07-20T02:56:22.712Z,17.78
2018-07-20T02:57:22.713Z,17.78
2018-07-20T02:58:22.707Z,17.86
2018-07-20T02:59:22.714Z,17.65
2018-07-20T03:00:22.704Z,17.65
2018-07-20T03:01:22.698Z,17.70
2018-07-20T03:02:22.696Z,17.67
2018-07-20T03:03:22.690Z,17.67
2018-07-20T03:04:22.694Z,17.63
2018-07-20T03:05:22.719Z,17.65
2018-07-20T03:06:22.692Z,17.57
2018-07-20T03:07:22.683Z,17.52
2018-07-20T03:08:22.681Z,17.54
2018-07-20T03:09:22.743Z,17.56
2018-07-20T03:10:22.674Z,17.52
2018-07-20T03:11:22.669Z,17.49
2018-07-20T03:12:22.671Z,17.48
2018-07-20T03:13:22.668Z,17.49
2018-07-20T03:14:22.669Z,17.41
2018-07-20T03:15:22.660Z,17.42
2018-07-20T03:16:22.659Z,17.57
2018-07-20T03:17:22.660Z,17.46
2018-07-20T03:18:22.651Z,17.57
2018-07-20T03:19:22.662Z,17.59
2018-07-20T03:20:22.647Z,17.57
2018-07-20T03:21:22.645Z,17.56
2018-07-20T03:22:22.638Z,17.46
2018-07-20T03:23:22.643Z,17.46
2018-07-20T03:24:22.633Z,17.46
2018-07-20T03:25:22.632Z,17.45
2018-07-20T03:26:22.629Z,17.41
2018-07-20T03:27:22.628Z,17.46
2018-07-20T03:28:22.627Z,17.52
2018-07-20T03:29:22.624Z,17.46
2018-07-20T03:30:22.616Z,17.48
2018-07-20T03:31:22.615Z,17.56
2018-07-20T03:32:22.611Z,17.54
2018-07-20T03:33:22.607Z,17.56
2018-07-20T03:34:22.607Z,17.57
2018-07-20T03:35:22.605Z,17.56
2018-07-20T03:36:22.597Z,17.56
2018-07-20T03:37:22.600Z,17.57
2018-07-20T03:38:22.595Z,17.48
2018-07-20T03:39:22.595Z,17.52
2018-07-20T03:40:22.588Z,17.45
2018-07-20T03:41:22.604Z,17.42
2018-07-20T03:42:22.582Z,17.44
2018-07-20T03:43:22.582Z,17.46
2018-07-20T03:44:22.579Z,17.48
2018-07-20T03:45:22.575Z,17.44
2018-07-20T03:46:22.568Z,17.41
2018-07-20T03:47:22.571Z,17.46
2018-07-20T03:48:22.585Z,17.33
2018-07-20T03:49:22.568Z,17.26
2018-07-20T03:50:22.562Z,17.29
2018-07-20T03:51:22.557Z,17.31
2018-07-20T03:52:22.552Z,17.29
2018-07-20T03:53:22.550Z,17.16
2018-07-20T03:54:22.545Z,17.22
2018-07-20T03:55:22.550Z,17.15
2018-07-20T03:56:22.544Z,17.23
2018-07-20T03:57:22.543Z,17.16
2018-07-20T03:58:22.536Z,17.20
2018-07-20T03:59:22.534Z,17.23
2018-07-20T04:00:22.531Z,17.36
2018-07-20T04:01:22.530Z,17.31
2018-07-20T04:02:22.562Z,17.27
2018-07-20T04:03:22.525Z,17.34
2018-07-20T04:04:22.521Z,17.24
2018-07-20T04:05:22.516Z,17.29
2018-07-20T04:06:22.515Z,17.33
2018-07-20T04:07:22.510Z,17.34
2018-07-20T04:08:22.513Z,17.41
2018-07-20T04:09:22.517Z,17.41
2018-07-20T04:10:22.531Z,17.41
2018-07-20T04:11:22.503Z,17.38
2018-07-20T04:12:22.499Z,17.48
2018-07-20T04:13:22.497Z,17.52
2018-07-20T04:14:22.490Z,17.52
2018-07-20T04:15:22.486Z,17.59
2018-07-20T04:16:22.486Z,17.54
2018-07-20T04:17:22.485Z,17.54
2018-07-20T04:18:22.480Z,17.68
2018-07-20T04:19:22.477Z,17.68
2018-07-20T04:20:22.475Z,17.71
2018-07-20T04:21:22.470Z,17.67
2018-07-20T04:22:22.479Z,17.68
2018-07-20T04:23:22.468Z,17.70
2018-07-20T04:24:22.463Z,17.78
2018-07-20T04:25:22.467Z,17.72
2018-07-20T04:26:22.454Z,17.72
2018-07-20T04:27:22.457Z,17.71
2018-07-20T04:28:22.454Z,17.70
2018-07-20T04:29:22.463Z,17.71
2018-07-20T04:30:22.444Z,17.79
2018-07-20T04:31:22.447Z,17.83
2018-07-20T04:32:22.441Z,17.63
2018-07-20T04:33:22.440Z,17.60
2018-07-20T04:34:22.434Z,17.68
2018-07-20T04:35:22.430Z,17.74
2018-07-20T04:36:22.478Z,17.70
2018-07-20T04:37:22.427Z,17.79
2018-07-20T04:38:22.426Z,17.71
2018-07-20T04:39:22.423Z,17.82
2018-07-20T04:40:22.423Z,17.80
2018-07-20T04:41:22.414Z,17.67
2018-07-20T04:42:22.411Z,17.67
2018-07-20T04:43:22.415Z,17.57
2018-07-20T04:44:22.407Z,17.56
2018-07-20T04:45:22.406Z,17.59
2018-07-20T04:46:22.405Z,17.51
2018-07-20T04:47:22.406Z,17.49
2018-07-20T04:48:22.404Z,17.52
2018-07-20T04:49:22.401Z,17.39
2018-07-20T04:50:22.404Z,17.60
2018-07-20T04:51:22.390Z,17.48
2018-07-20T04:52:22.396Z,17.42
2018-07-20T04:53:22.389Z,17.56
2018-07-20T04:54:22.382Z,17.63
2018-07-20T04:55:22.401Z,17.72
2018-07-20T04:56:22.379Z,17.67
2018-07-20T04:57:22.425Z,17.76
2018-07-20T04:58:22.388Z,17.82
2018-07-20T04:59:22.371Z,17.83
2018-07-20T05:00:22.372Z,17.94
2018-07-20T05:01:22.379Z,17.95
2018-07-20T05:02:22.366Z,17.95
2018-07-20T05:03:22.360Z,17.94
2018-07-20T05:04:22.353Z,18.05
2018-07-20T05:05:22.362Z,18.00
2018-07-20T05:06:22.350Z,18.07
2018-07-20T05:07:22.349Z,18.11
2018-07-20T05:08:22.349Z,18.26
2018-07-20T05:09:22.349Z,18.25
2018-07-20T05:10:22.347Z,18.23
2018-07-20T05:11:22.375Z,18.22
2018-07-20T05:12:22.993Z,18.19
2018-07-20T05:13:22.375Z,18.26
2018-07-20T05:14:22.334Z,18.25
2018-07-20T05:15:22.328Z,18.28
2018-07-20T05:16:22.333Z,18.20
2018-07-20T05:17:22.328Z,18.28
2018-07-20T05:18:22.320Z,18.25
2018-07-20T05:19:22.317Z,18.33
2018-07-20T05:20:22.323Z,18.22
2018-07-20T05:21:22.316Z,18.22
2018-07-20T05:22:22.312Z,18.23
2018-07-20T05:23:22.308Z,18.19
2018-07-20T05:24:22.307Z,18.15
2018-07-20T05:25:22.305Z,18.10
2018-07-20T05:26:22.302Z,18.20
2018-07-20T05:27:22.296Z,18.20
2018-07-20T05:28:22.306Z,18.47
2018-07-20T05:29:22.301Z,18.52
2018-07-20T05:30:22.294Z,18.52
2018-07-20T05:31:22.293Z,18.55
2018-07-20T05:32:22.287Z,18.60
2018-07-20T05:33:22.285Z,18.60
2018-07-20T05:34:22.283Z,18.70
2018-07-20T05:35:22.294Z,18.68
2018-07-20T05:36:22.284Z,18.71
2018-07-20T05:37:22.282Z,18.78
2018-07-20T05:38:22.280Z,18.75
2018-07-20T05:39:22.280Z,18.88
2018-07-20T05:40:22.279Z,18.90
2018-07-20T05:41:22.277Z,18.93
2018-07-20T05:42:22.273Z,18.98
2018-07-20T05:43:22.266Z,18.93
2018-07-20T05:44:22.291Z,19.02
2018-07-20T05:45:22.268Z,19.07
2018-07-20T05:46:22.263Z,19.11
2018-07-20T05:47:22.275Z,19.30
2018-07-20T05:48:22.286Z,19.30
2018-07-20T05:49:22.261Z,19.41
2018-07-20T05:50:22.257Z,19.52
2018-07-20T05:51:22.259Z,19.52
2018-07-20T05:52:22.260Z,19.74
2018-07-20T05:53:22.290Z,19.84
2018-07-20T05:54:22.252Z,19.96
2018-07-20T05:55:22.250Z,20.00
2018-07-20T05:56:22.252Z,20.07
2018-07-20T05:57:22.253Z,20.31
2018-07-20T05:58:22.262Z,20.32
2018-07-20T05:59:22.262Z,20.44
2018-07-20T06:00:22.247Z,20.51
2018-07-20T06:01:22.544Z,20.56
2018-07-20T06:02:22.251Z,20.52
2018-07-20T06:03:22.263Z,20.65
2018-07-20T06:04:22.253Z,20.70
2018-07-20T06:05:22.254Z,20.65
2018-07-20T06:06:22.250Z,20.67
2018-07-20T06:07:22.254Z,20.62
2018-07-20T06:08:22.250Z,20.70
2018-07-20T06:09:22.252Z,20.75
2018-07-20T06:10:22.263Z,20.77
2018-07-20T06:11:22.253Z,20.85
2018-07-20T06:12:22.261Z,21.00
2018-07-20T06:13:22.277Z,21.12
2018-07-20T06:14:22.252Z,21.29
2018-07-20T06:15:22.277Z,21.32
2018-07-20T06:16:22.287Z,21.30
2018-07-20T06:17:22.268Z,21.32
2018-07-20T06:18:22.258Z,21.30
2018-07-20T06:19:22.261Z,21.36
2018-07-20T06:20:22.259Z,21.35
2018-07-20T06:21:22.261Z,21.30
2018-07-20T06:22:22.265Z,21.36
2018-07-20T06:23:22.264Z,21.20
2018-07-20T06:24:22.264Z,21.18
2018-07-20T06:25:22.265Z,21.17
2018-07-20T06:26:22.267Z,21.12
2018-07-20T06:27:22.272Z,21.33
2018-07-20T06:28:22.267Z,21.32
2018-07-20T06:29:22.266Z,21.35
2018-07-20T06:30:22.272Z,21.51
2018-07-20T06:31:22.270Z,21.70
2018-07-20T06:32:22.285Z,21.82
2018-07-20T06:33:22.285Z,22.10
2018-07-20T06:34:22.280Z,22.20
2018-07-20T06:35:22.279Z,22.28
2018-07-20T06:36:22.281Z,22.39
2018-07-20T06:37:22.280Z,22.35
2018-07-20T06:38:22.290Z,22.26
2018-07-20T06:39:22.291Z,22.29
2018-07-20T06:40:22.286Z,22.18
2018-07-20T06:41:22.287Z,22.13
2018-07-20T06:42:22.291Z,22.20
2018-07-20T06:43:22.294Z,22.23
2018-07-20T06:44:22.292Z,22.22
2018-07-20T06:45:22.303Z,22.28
2018-07-20T06:46:22.297Z,22.32
2018-07-20T06:47:22.296Z,22.41
2018-07-20T06:48:22.299Z,22.50
2018-07-20T06:49:22.302Z,22.55
2018-07-20T06:50:22.300Z,22.57
2018-07-20T06:51:22.303Z,22.66
2018-07-20T06:52:23.048Z,22.78
2018-07-20T06:53:22.308Z,22.75
2018-07-20T06:54:22.312Z,22.75
2018-07-20T06:55:22.314Z,22.80
2018-07-20T06:56:22.313Z,22.84
2018-07-20T06:57:22.316Z,22.80
2018-07-20T06:58:22.318Z,23.05
2018-07-20T06:59:22.318Z,23.21
2018-07-20T07:00:22.317Z,23.25
2018-07-20T07:01:22.323Z,23.34
2018-07-20T07:02:22.322Z,23.34
2018-07-20T07:03:22.327Z,23.51
2018-07-20T07:04:22.329Z,23.58
2018-07-20T07:05:22.336Z,23.66
2018-07-20T07:06:22.341Z,23.68
2018-07-20T07:07:22.337Z,23.96
2018-07-20T07:08:22.342Z,24.01
2018-07-20T07:09:22.346Z,24.45
2018-07-20T07:10:22.342Z,24.63
2018-07-20T07:11:22.346Z,24.76
2018-07-20T07:12:22.351Z,24.89
2018-07-20T07:13:23.065Z,24.95
2018-07-20T07:14:22.363Z,24.96
2018-07-20T07:15:22.355Z,24.91
2018-07-20T07:16:22.365Z,25.03
2018-07-20T07:17:22.366Z,25.01
2018-07-20T07:18:22.374Z,24.96
2018-07-20T07:19:22.371Z,25.16
2018-07-20T07:20:23.071Z,25.22
2018-07-20T07:22:16.132Z,25.08
2018-07-20T07:23:16.069Z,25.03
2018-07-20T07:25:09.916Z,24.80
2018-07-20T07:26:09.601Z,24.73
2018-07-20T07:27:09.573Z,24.69
2018-07-20T07:28:09.580Z,24.61
2018-07-20T07:29:09.624Z,24.61
2018-07-20T07:31:03.287Z,25.13
2018-07-20T07:32:03.256Z,25.29
2018-07-20T07:33:56.864Z,25.32
2018-07-20T07:34:56.852Z,25.68
2018-07-20T07:36:50.581Z,25.99
2018-07-20T07:37:50.541Z,26.13
2018-07-20T07:39:44.155Z,26.05
2018-07-20T07:40:44.144Z,26.31
2018-07-20T07:42:37.827Z,26.48
2018-07-20T07:43:37.814Z,26.53
2018-07-20T07:44:37.811Z,26.53
2018-07-20T07:45:37.807Z,26.60
2018-07-20T07:46:37.823Z,27.02
2018-07-20T07:47:37.841Z,27.30
2018-07-20T07:48:37.822Z,27.45
2018-07-20T07:49:37.834Z,27.52
2018-07-20T07:50:37.832Z,27.40
2018-07-20T07:51:37.838Z,27.26
2018-07-20T07:52:37.868Z,27.08
2018-07-20T07:53:37.851Z,27.21
2018-07-20T07:54:37.857Z,27.32
2018-07-20T07:55:37.864Z,27.51
2018-07-20T07:56:37.865Z,27.58
2018-07-20T07:57:37.874Z,27.73
2018-07-20T07:58:37.889Z,27.96
2018-07-20T07:59:37.885Z,28.12
2018-07-20T08:00:38.587Z,28.30
2018-07-20T08:01:37.898Z,28.33
2018-07-20T08:02:38.596Z,28.52
2018-07-20T08:03:37.977Z,28.94
2018-07-20T08:04:37.945Z,29.29
2018-07-20T08:05:37.929Z,29.17
2018-07-20T08:06:37.972Z,28.72
2018-07-20T08:07:37.986Z,28.29
2018-07-20T08:08:37.983Z,27.87
2018-07-20T08:09:37.988Z,28.04
2018-07-20T08:10:37.975Z,28.10
2018-07-20T08:11:37.980Z,28.10
2018-07-20T08:12:37.979Z,28.05
2018-07-20T08:13:37.982Z,28.00
2018-07-20T08:14:38.003Z,27.98
2018-07-20T08:15:38.007Z,28.19
2018-07-20T08:16:38.014Z,28.42
2018-07-20T08:17:38.011Z,28.57
2018-07-20T08:18:38.019Z,28.78
2018-07-20T08:19:38.030Z,28.93
2018-07-20T08:20:38.030Z,28.89
2018-07-20T08:21:38.040Z,29.14
2018-07-20T08:22:38.046Z,29.61
2018-07-20T08:23:38.052Z,30.18
2018-07-20T08:24:38.059Z,30.68
2018-07-20T08:25:38.069Z,30.70
2018-07-20T08:26:38.079Z,30.66
2018-07-20T08:27:38.086Z,30.68
2018-07-20T08:28:38.106Z,30.65
2018-07-20T08:29:38.103Z,30.51
2018-07-20T08:30:38.117Z,30.32
2018-07-20T08:31:38.123Z,30.40
2018-07-20T08:32:38.125Z,30.66
2018-07-20T08:33:38.143Z,30.69
2018-07-20T08:34:38.145Z,30.75
2018-07-20T08:35:38.153Z,30.77
2018-07-20T08:36:39.120Z,30.94
2018-07-20T08:37:38.168Z,31.12
2018-07-20T08:38:38.194Z,30.96
2018-07-20T08:39:38.204Z,31.15
2018-07-20T08:40:38.196Z,31.27
2018-07-20T08:41:38.204Z,31.39
2018-07-20T08:42:38.222Z,31.43
2018-07-20T08:43:38.224Z,31.56
2018-07-20T08:44:38.229Z,31.92
2018-07-20T08:45:38.275Z,31.74
2018-07-20T08:46:38.316Z,31.62
2018-07-20T08:47:38.259Z,31.27
2018-07-20T08:48:38.290Z,30.92
2018-07-20T08:49:38.276Z,30.81
2018-07-20T08:50:38.284Z,30.68
2018-07-20T08:51:38.298Z,30.65
2018-07-20T08:52:38.310Z,30.70
2018-07-20T08:53:38.315Z,31.10
2018-07-20T08:54:38.320Z,31.40
2018-07-20T08:55:38.330Z,31.74
2018-07-20T08:56:38.339Z,31.89
2018-07-20T08:57:38.359Z,32.12
2018-07-20T08:58:40.124Z,32.11
2018-07-20T08:59:38.373Z,32.29
2018-07-20T09:00:38.376Z,32.40
2018-07-20T09:01:38.389Z,32.31
2018-07-20T09:02:38.400Z,32.21
2018-07-20T09:03:38.453Z,32.49
2018-07-20T09:04:38.414Z,32.60
2018-07-20T09:05:38.424Z,32.64
2018-07-20T09:06:38.452Z,32.41
2018-07-20T09:07:38.444Z,32.11
2018-07-20T09:08:38.452Z,32.09
2018-07-20T09:09:38.466Z,32.19
2018-07-20T09:10:38.472Z,32.36
2018-07-20T09:11:39.137Z,32.49
2018-07-20T09:12:39.144Z,32.93
2018-07-20T09:13:38.590Z,33.14
2018-07-20T09:14:38.517Z,33.49
2018-07-20T09:15:38.535Z,33.69
2018-07-20T09:16:38.539Z,33.64
2018-07-20T09:17:38.547Z,33.28
2018-07-20T09:18:38.556Z,33.39
2018-07-20T09:19:38.567Z,33.61
2018-07-20T09:20:38.606Z,33.68
2018-07-20T09:21:38.594Z,33.24
2018-07-20T09:22:38.601Z,32.95
2018-07-20T09:23:38.609Z,33.12
2018-07-20T09:24:38.618Z,32.86
2018-07-20T09:25:38.627Z,32.68
2018-07-20T09:26:38.651Z,32.46
2018-07-20T09:27:38.657Z,32.23
2018-07-20T09:28:38.665Z,31.97
2018-07-20T09:29:38.671Z,32.16
2018-07-20T09:30:38.680Z,32.27
2018-07-20T09:31:38.694Z,32.29
2018-07-20T09:32:38.703Z,32.48
2018-07-20T09:33:38.714Z,32.64
2018-07-20T09:34:38.726Z,32.73
2018-07-20T09:35:40.668Z,32.87
2018-07-20T09:36:38.752Z,33.32
2018-07-20T09:37:38.760Z,33.57
2018-07-20T09:38:38.774Z,33.90
2018-07-20T09:39:38.812Z,34.10
2018-07-20T09:40:38.812Z,34.18
2018-07-20T09:41:38.801Z,34.10
2018-07-20T09:42:38.839Z,33.83
2018-07-20T09:43:38.828Z,33.87
2018-07-20T09:44:38.836Z,34.01
2018-07-20T09:45:38.858Z,34.36
2018-07-20T09:46:38.863Z,34.58
2018-07-20T09:47:38.881Z,34.96
2018-07-20T09:48:38.898Z,35.18
2018-07-20T09:49:38.899Z,35.24
2018-07-20T09:50:38.912Z,34.80
2018-07-20T09:51:38.923Z,34.38
2018-07-20T09:52:38.932Z,34.01
2018-07-20T09:53:38.943Z,34.08
2018-07-20T09:54:38.959Z,34.13
2018-07-20T09:55:38.969Z,34.45
2018-07-20T09:56:38.979Z,34.70
2018-07-20T09:57:38.999Z,34.86
2018-07-20T09:58:39.007Z,34.77
2018-07-20T09:59:39.149Z,34.62
2018-07-20T10:00:39.030Z,34.39
2018-07-20T10:01:39.049Z,34.39
2018-07-20T10:02:39.055Z,34.38
2018-07-20T10:03:39.070Z,34.32
2018-07-20T10:04:39.084Z,34.13
2018-07-20T10:05:39.094Z,33.89
2018-07-20T10:06:39.116Z,33.84
2018-07-20T10:07:39.126Z,34.10
2018-07-20T10:08:39.134Z,34.18
2018-07-20T10:09:39.148Z,34.30
2018-07-20T10:10:39.159Z,34.77
2018-07-20T10:11:39.174Z,35.04
2018-07-20T10:12:39.221Z,35.48
2018-07-20T10:13:39.196Z,35.79
2018-07-20T10:14:39.217Z,35.80
2018-07-20T10:15:39.225Z,35.74
2018-07-20T10:16:39.250Z,35.73
2018-07-20T10:17:39.259Z,35.41
2018-07-20T10:18:39.263Z,35.17
2018-07-20T10:19:39.281Z,35.15
2018-07-20T10:20:39.292Z,35.14
2018-07-20T10:21:39.334Z,35.39
2018-07-20T10:22:39.317Z,35.93
2018-07-20T10:23:39.338Z,35.89
2018-07-20T10:24:39.347Z,35.55
2018-07-20T10:25:39.408Z,35.53
2018-07-20T10:26:39.378Z,35.76
2018-07-20T10:27:39.391Z,36.16
2018-07-20T10:28:39.402Z,36.25
2018-07-20T10:29:39.415Z,36.58
2018-07-20T10:30:39.462Z,36.42
2018-07-20T10:31:39.459Z,36.02
2018-07-20T10:32:39.456Z,35.70
2018-07-20T10:33:39.474Z,35.36
2018-07-20T10:34:39.484Z,34.86
2018-07-20T10:35:39.502Z,34.86
2018-07-20T10:36:39.556Z,35.00
2018-07-20T10:37:39.519Z,35.07
2018-07-20T10:38:39.537Z,35.11
2018-07-20T10:39:39.547Z,35.14
2018-07-20T10:40:39.565Z,35.02
2018-07-20T10:41:39.573Z,35.10
2018-07-20T10:42:39.586Z,35.11
2018-07-20T10:43:39.599Z,34.86
2018-07-20T10:44:39.614Z,34.93
2018-07-20T10:45:39.629Z,35.04
2018-07-20T10:46:39.636Z,35.44
2018-07-20T10:47:39.650Z,35.85
2018-07-20T10:48:39.662Z,36.20
2018-07-20T10:49:39.673Z,36.16
2018-07-20T10:50:39.714Z,36.30
2018-07-20T10:51:39.701Z,36.51
2018-07-20T10:52:39.717Z,36.55
2018-07-20T10:53:39.727Z,36.43
2018-07-20T10:54:39.759Z,36.49
2018-07-20T10:55:39.764Z,36.42
2018-07-20T10:56:39.767Z,36.27
2018-07-20T10:57:39.776Z,36.28
2018-07-20T10:58:39.797Z,35.74
2018-07-20T10:59:39.806Z,35.34
2018-07-20T11:00:39.820Z,35.53
2018-07-20T11:01:39.850Z,35.67
2018-07-20T11:02:39.843Z,35.71
2018-07-20T11:03:39.857Z,35.05
2018-07-20T11:04:39.867Z,34.45
2018-07-20T11:05:39.875Z,34.57
2018-07-20T11:06:39.890Z,34.85
2018-07-20T11:07:39.904Z,35.00
2018-07-20T11:08:39.911Z,35.44
2018-07-20T11:09:39.924Z,35.90
2018-07-20T11:10:39.934Z,36.23
2018-07-20T11:11:39.947Z,36.49
2018-07-20T11:12:39.955Z,36.79
2018-07-20T11:13:40.013Z,36.86
2018-07-20T11:14:39.982Z,37.03
2018-07-20T11:15:39.986Z,37.03
2018-07-20T11:16:40.007Z,37.25
2018-07-20T11:17:40.014Z,37.33
2018-07-20T11:18:40.024Z,37.28
2018-07-20T11:19:40.041Z,37.18
2018-07-20T11:20:40.043Z,37.06
2018-07-20T11:21:40.052Z,36.77
2018-07-20T11:22:40.067Z,36.24
2018-07-20T11:23:40.072Z,35.58
2018-07-20T11:24:40.089Z,35.15
2018-07-20T11:25:40.101Z,35.04
2018-07-20T11:26:40.108Z,35.18
2018-07-20T11:27:40.118Z,35.19
2018-07-20T11:28:40.125Z,35.78
2018-07-20T11:29:40.140Z,36.49
2018-07-20T11:30:40.159Z,37.07
2018-07-20T11:31:40.176Z,37.03
2018-07-20T11:32:40.177Z,36.79
2018-07-20T11:33:40.185Z,36.51
2018-07-20T11:34:40.210Z,36.39
2018-07-20T11:35:40.213Z,35.74
2018-07-20T11:36:40.221Z,35.08
2018-07-20T11:37:40.236Z,34.58
2018-07-20T11:38:40.244Z,34.80
2018-07-20T11:39:40.268Z,35.14
2018-07-20T11:40:40.272Z,35.24
2018-07-20T11:41:40.280Z,35.34
2018-07-20T11:42:40.325Z,35.44
2018-07-20T11:43:40.306Z,35.45
2018-07-20T11:44:40.315Z,35.49
2018-07-20T11:45:40.331Z,35.19
2018-07-20T11:46:40.342Z,35.18
2018-07-20T11:47:40.350Z,35.14
2018-07-20T11:48:40.368Z,34.75
2018-07-20T11:49:40.376Z,34.55
2018-07-20T11:50:40.380Z,34.27
2018-07-20T11:51:40.403Z,34.30
2018-07-20T11:52:40.424Z,34.32
2018-07-20T11:53:40.415Z,34.30
2018-07-20T11:54:40.425Z,34.38
2018-07-20T11:55:40.449Z,34.36
2018-07-20T11:56:40.456Z,34.40
2018-07-20T11:57:40.458Z,34.20
2018-07-20T11:58:40.468Z,34.24
2018-07-20T11:59:40.477Z,34.47
2018-07-20T12:00:40.488Z,34.77
2018-07-20T12:01:41.240Z,35.08
2018-07-20T12:02:40.506Z,35.46
2018-07-20T12:03:40.522Z,35.60
2018-07-20T12:04:40.552Z,35.74
2018-07-20T12:05:40.539Z,35.55
2018-07-20T12:06:40.551Z,35.36
2018-07-20T12:07:40.560Z,35.24
2018-07-20T12:08:40.567Z,35.31
2018-07-20T12:09:40.574Z,35.29
2018-07-20T12:10:40.584Z,35.34
2018-07-20T12:11:40.593Z,34.85
2018-07-20T12:12:40.627Z,34.83
2018-07-20T12:13:40.612Z,35.12
2018-07-20T12:14:40.623Z,35.46
2018-07-20T12:15:40.625Z,35.71
2018-07-20T12:16:40.693Z,35.70
2018-07-20T12:17:40.649Z,35.29
2018-07-20T12:18:40.679Z,35.12
2018-07-20T12:19:40.672Z,35.19
2018-07-20T12:20:40.679Z,35.23
2018-07-20T12:21:40.685Z,35.23
2018-07-20T12:22:40.712Z,35.15
2018-07-20T12:23:40.713Z,35.22
2018-07-20T12:24:40.728Z,35.27
2018-07-20T12:25:40.716Z,35.33
2018-07-20T12:26:40.732Z,35.23
2018-07-20T12:27:40.734Z,35.30
2018-07-20T12:28:40.756Z,35.23
2018-07-20T12:29:40.758Z,35.23
2018-07-20T12:30:40.766Z,35.14
2018-07-20T12:31:40.777Z,35.15
2018-07-20T12:32:40.786Z,35.24
2018-07-20T12:33:40.792Z,35.39
2018-07-20T12:34:40.804Z,35.22
2018-07-20T12:35:40.813Z,35.52
2018-07-20T12:36:40.844Z,35.42
2018-07-20T12:37:40.827Z,35.29
2018-07-20T12:38:40.838Z,35.19
2018-07-20T12:39:40.851Z,35.34
2018-07-20T12:40:40.860Z,35.60
2018-07-20T12:41:40.867Z,35.55
2018-07-20T12:42:40.908Z,35.71
2018-07-20T12:43:40.885Z,35.76
2018-07-20T12:44:40.933Z,35.70
2018-07-20T12:45:40.910Z,35.83
2018-07-20T12:46:40.980Z,35.73
2018-07-20T12:47:40.921Z,35.74
2018-07-20T12:48:40.958Z,35.61
2018-07-20T12:49:40.945Z,35.46
2018-07-20T12:50:40.953Z,35.34
2018-07-20T12:51:40.964Z,35.34
2018-07-20T12:52:40.969Z,35.24
2018-07-20T12:53:40.984Z,35.05
2018-07-20T12:54:41.000Z,34.85
2018-07-20T12:55:41.004Z,34.85
2018-07-20T12:56:41.001Z,34.81
2018-07-20T12:57:41.017Z,34.71
2018-07-20T12:58:41.100Z,34.58